Time;durP1;ratioP1;P1;durP2;ratioP2;P2;SDS_P1;SDS_P2;PMS_P1;PMS_P2;Temp;Humidity;BMP_temperature;BMP_pressure;BME280_temperature;BME280_humidity;BME280_pressure;Samples;Min_cycle;Max_cycle;Signal;HPM_P1;HPM_P2
2022/07/08 00:00:07;;;;;;;1.43;0.90;;;16.90;93.30;;;;;;6093026;23;20735;-78
2022/07/08 00:02:34;;;;;;;1.50;1.00;;;16.80;93.20;;;;;;6099627;23;20530;-77
2022/07/08 00:05:01;;;;;;;1.43;0.90;;;16.80;93.40;;;;;;6095711;23;20754;-77
2022/07/08 00:07:28;;;;;;;1.47;0.90;;;16.80;93.50;;;;;;6097216;23;20533;-77
2022/07/08 00:09:55;;;;;;;1.47;0.90;;;16.90;93.40;;;;;;6095210;23;20427;-77
2022/07/08 00:12:22;;;;;;;1.47;0.90;;;16.90;93.60;;;;;;6091589;23;20430;-77
2022/07/08 00:14:50;;;;;;;1.50;0.90;;;16.90;93.60;;;;;;6091780;23;20445;-76
2022/07/08 00:17:17;;;;;;;1.50;0.90;;;16.90;93.40;;;;;;6094038;23;20510;-77
2022/07/08 00:19:44;;;;;;;1.50;0.97;;;16.90;93.40;;;;;;6096400;23;20426;-77
2022/07/08 00:22:11;;;;;;;1.47;0.90;;;16.80;93.70;;;;;;6090487;23;20423;-77
2022/07/08 00:24:38;;;;;;;1.43;0.97;;;16.80;94.00;;;;;;6090465;23;20451;-76
2022/07/08 00:27:05;;;;;;;1.40;0.90;;;16.80;94.00;;;;;;6095888;23;20517;-76
2022/07/08 00:29:32;;;;;;;1.50;0.90;;;16.80;94.10;;;;;;6099127;23;20509;-77
2022/07/08 00:32:00;;;;;;;1.47;0.90;;;16.70;94.00;;;;;;6090837;23;20438;-76
2022/07/08 00:34:27;;;;;;;1.50;1.10;;;16.80;94.40;;;;;;6091621;23;20443;-77
2022/07/08 00:36:54;;;;;;;1.50;0.97;;;16.70;93.90;;;;;;6088836;23;20460;-76
2022/07/08 00:39:21;;;;;;;1.40;0.93;;;16.80;94.00;;;;;;6101383;23;20770;-77
2022/07/08 00:41:48;;;;;;;1.50;1.00;;;16.70;94.40;;;;;;6087435;23;20450;-77
2022/07/08 00:44:15;;;;;;;1.50;1.00;;;16.70;94.60;;;;;;6104055;23;20454;-77
2022/07/08 00:46:42;;;;;;;1.50;1.00;;;16.70;94.80;;;;;;6092962;23;20433;-77
2022/07/08 00:49:10;;;;;;;1.50;0.90;;;16.60;94.90;;;;;;6093187;23;20738;-76
2022/07/08 00:51:38;;;;;;;1.50;0.90;;;16.60;95.10;;;;;;6087881;23;20475;-77
2022/07/08 00:54:05;;;;;;;1.47;0.90;;;16.60;95.40;;;;;;6106284;23;20932;-75
2022/07/08 00:56:32;;;;;;;1.47;0.90;;;16.60;95.40;;;;;;6094261;23;20429;-77
2022/07/08 00:58:59;;;;;;;1.47;0.90;;;16.60;95.00;;;;;;6093587;23;20423;-76
2022/07/08 01:01:26;;;;;;;1.50;0.97;;;16.60;95.40;;;;;;6085720;23;20456;-77
2022/07/08 01:03:55;;;;;;;1.47;1.00;;;16.60;95.60;;;;;;6107830;23;20489;-76
2022/07/08 01:06:23;;;;;;;1.50;1.00;;;16.60;95.40;;;;;;6093505;23;20510;-77
2022/07/08 01:08:50;;;;;;;1.50;1.00;;;16.60;95.40;;;;;;6094560;23;20457;-77
2022/07/08 01:11:17;;;;;;;1.50;0.90;;;16.60;95.40;;;;;;6093932;23;20453;-77
2022/07/08 01:13:44;;;;;;;1.50;1.00;;;16.60;95.10;;;;;;6095016;23;20493;-77
2022/07/08 01:16:12;;;;;;;1.50;0.90;;;16.60;95.60;;;;;;6093928;23;20422;-78
2022/07/08 01:18:40;;;;;;;1.50;1.00;;;16.60;95.60;;;;;;6093696;23;20432;-77
2022/07/08 01:21:09;;;;;;;1.50;1.00;;;16.60;96.20;;;;;;6092905;23;20939;-76
2022/07/08 01:23:35;;;;;;;1.50;0.97;;;16.50;96.10;;;;;;6092806;23;20479;-76
2022/07/08 01:26:08;;;;;;;1.47;1.00;;;16.60;96.10;;;;;;6093828;23;20429;-77
2022/07/08 01:28:36;;;;;;;1.40;0.90;;;16.60;96.20;;;;;;6093192;23;20489;-76
2022/07/08 01:31:03;;;;;;;1.40;0.90;;;16.50;96.50;;;;;;6080585;23;20441;-77
2022/07/08 01:33:31;;;;;;;1.50;1.00;;;16.50;96.20;;;;;;6113260;23;20740;-77
2022/07/08 01:35:58;;;;;;;1.47;1.00;;;16.50;96.50;;;;;;6094962;23;20426;-76
2022/07/08 01:38:26;;;;;;;1.50;0.90;;;16.50;96.70;;;;;;6088820;23;20427;-77
2022/07/08 01:40:53;;;;;;;1.50;1.00;;;16.40;96.90;;;;;;6092355;23;20427;-77
2022/07/08 01:43:20;;;;;;;1.50;1.00;;;16.40;96.60;;;;;;6092852;23;20447;-76
2022/07/08 01:45:48;;;;;;;1.43;0.90;;;16.50;96.60;;;;;;6088242;23;20774;-77
2022/07/08 01:48:15;;;;;;;1.43;1.00;;;16.50;96.40;;;;;;6115697;23;20419;-77
2022/07/08 01:50:41;;;;;;;1.50;0.90;;;16.50;96.20;;;;;;6092685;23;20431;-77
2022/07/08 01:53:08;;;;;;;1.47;0.90;;;16.50;96.60;;;;;;6100374;23;20456;-77
2022/07/08 01:55:36;;;;;;;1.40;0.93;;;16.50;96.70;;;;;;6093067;23;20438;-78
2022/07/08 01:58:03;;;;;;;1.50;1.00;;;16.40;97.10;;;;;;6101536;23;20493;-76
2022/07/08 02:00:31;;;;;;;1.47;0.93;;;16.30;96.90;;;;;;6093487;23;20453;-77
2022/07/08 02:02:58;;;;;;;1.50;1.00;;;16.30;97.00;;;;;;6091599;23;20427;-77
2022/07/08 02:05:26;;;;;;;1.47;0.90;;;16.30;97.10;;;;;;6092603;23;20451;-77
2022/07/08 02:07:53;;;;;;;1.47;0.90;;;16.30;97.20;;;;;;6095369;23;20505;-77
2022/07/08 02:10:21;;;;;;;1.40;0.97;;;16.30;97.30;;;;;;6097044;23;20422;-77
2022/07/08 02:12:48;;;;;;;1.50;0.93;;;16.30;97.50;;;;;;6093903;23;20522;-76
2022/07/08 02:15:15;;;;;;;1.50;1.00;;;16.30;97.50;;;;;;6093755;23;20465;-76
2022/07/08 02:17:43;;;;;;;1.43;0.93;;;16.30;97.50;;;;;;6100890;23;20449;-77
2022/07/08 02:20:12;;;;;;;1.47;1.00;;;16.30;97.60;;;;;;6093476;23;20497;-77
2022/07/08 02:22:40;;;;;;;1.47;0.90;;;16.30;97.50;;;;;;6092548;23;20788;-77
2022/07/08 02:25:09;;;;;;;1.43;0.93;;;16.30;97.50;;;;;;6093757;23;20457;-77
2022/07/08 02:27:36;;;;;;;1.50;0.90;;;16.30;97.60;;;;;;6098817;23;20524;-77
2022/07/08 02:30:05;;;;;;;1.50;1.00;;;16.30;97.70;;;;;;6095245;23;20482;-77
2022/07/08 02:32:32;;;;;;;1.47;0.93;;;16.30;97.90;;;;;;6092747;23;20521;-77
2022/07/08 02:34:59;;;;;;;1.50;1.00;;;16.30;97.60;;;;;;6093434;23;20710;-76
2022/07/08 02:37:27;;;;;;;1.47;1.00;;;16.30;97.50;;;;;;6097484;23;20960;-76
2022/07/08 02:39:54;;;;;;;1.50;1.00;;;16.30;97.70;;;;;;6096868;23;20756;-77
2022/07/08 02:42:22;;;;;;;1.50;1.00;;;16.30;97.60;;;;;;6096036;23;20453;-77
2022/07/08 02:44:49;;;;;;;1.50;1.10;;;16.30;97.60;;;;;;6095884;23;20455;-76
2022/07/08 02:47:22;;;;;;;1.47;1.00;;;16.20;97.50;;;;;;6091923;23;20921;-77
2022/07/08 02:49:49;;;;;;;1.50;0.97;;;16.20;97.60;;;;;;6091771;23;20725;-75
2022/07/08 02:52:16;;;;;;;1.50;0.97;;;16.20;97.90;;;;;;6094243;23;20789;-77
2022/07/08 02:54:43;;;;;;;1.50;0.97;;;16.20;98.20;;;;;;6096890;23;20442;-77
2022/07/08 02:57:10;;;;;;;1.50;1.00;;;16.20;98.20;;;;;;6091827;23;20949;-77
2022/07/08 02:59:37;;;;;;;1.47;0.90;;;16.20;98.20;;;;;;6093718;23;20505;-76
2022/07/08 03:02:04;;;;;;;1.50;1.00;;;16.20;98.20;;;;;;6092855;23;20885;-77
2022/07/08 03:04:33;;;;;;;1.50;0.90;;;16.20;98.20;;;;;;6100316;23;20494;-76
2022/07/08 03:07:00;;;;;;;1.47;0.97;;;16.20;98.20;;;;;;6094384;23;20423;-76
2022/07/08 03:09:27;;;;;;;1.50;1.00;;;16.20;98.20;;;;;;6093421;23;20482;-76
2022/07/08 03:11:54;;;;;;;1.50;1.00;;;16.20;98.20;;;;;;6091930;23;20477;-76
2022/07/08 03:14:21;;;;;;;1.50;1.00;;;16.20;98.20;;;;;;6104890;23;20494;-78
2022/07/08 03:16:48;;;;;;;1.47;0.90;;;16.20;98.20;;;;;;6095146;23;20924;-77
2022/07/08 03:19:15;;;;;;;1.47;0.90;;;16.20;98.20;;;;;;6093907;23;20498;-78
2022/07/08 03:21:43;;;;;;;1.50;1.00;;;16.20;98.20;;;;;;6088310;23;20449;-78
2022/07/08 03:24:10;;;;;;;1.50;1.00;;;16.20;98.00;;;;;;6105262;23;20450;-78
2022/07/08 03:26:37;;;;;;;1.50;1.00;;;16.20;98.20;;;;;;6090779;23;20474;-77
2022/07/08 03:29:05;;;;;;;1.47;0.90;;;16.20;98.20;;;;;;6106166;23;20850;-77
2022/07/08 03:31:32;;;;;;;1.50;1.00;;;16.20;98.20;;;;;;6092876;23;20430;-77
2022/07/08 03:33:59;;;;;;;1.50;1.00;;;16.20;98.20;;;;;;6095206;23;20897;-77
2022/07/08 03:36:26;;;;;;;1.50;0.90;;;16.20;98.20;;;;;;6092660;23;20422;-77
2022/07/08 03:38:54;;;;;;;1.50;1.00;;;16.20;98.20;;;;;;6101904;23;20939;-77
2022/07/08 03:41:20;;;;;;;1.47;1.00;;;16.20;98.20;;;;;;6083476;23;20528;-77
2022/07/08 03:43:48;;;;;;;1.47;0.90;;;16.10;98.20;;;;;;6111050;23;20481;-77
2022/07/08 03:46:16;;;;;;;1.47;0.90;;;16.10;98.20;;;;;;6083919;23;20452;-78
2022/07/08 03:48:43;;;;;;;1.50;1.00;;;16.10;98.20;;;;;;6109594;23;20454;-77
2022/07/08 03:51:10;;;;;;;1.47;0.90;;;16.10;98.20;;;;;;6090997;23;20520;-76
2022/07/08 03:53:38;;;;;;;1.50;1.00;;;16.00;98.20;;;;;;6091508;23;20475;-77
2022/07/08 03:56:07;;;;;;;1.50;1.00;;;16.00;98.20;;;;;;6091328;23;20502;-77
2022/07/08 03:58:35;;;;;;;1.43;0.90;;;16.00;98.20;;;;;;6091948;23;20473;-77
2022/07/08 04:01:03;;;;;;;1.47;0.90;;;15.90;98.20;;;;;;6091493;23;20429;-77
2022/07/08 04:03:30;;;;;;;1.50;1.00;;;16.00;98.20;;;;;;6093809;23;20431;-77
2022/07/08 04:05:57;;;;;;;1.50;0.90;;;16.00;98.20;;;;;;6081708;23;20501;-77
2022/07/08 04:08:24;;;;;;;1.50;0.90;;;15.90;98.20;;;;;;6113605;23;20437;-77
2022/07/08 04:10:51;;;;;;;1.47;0.90;;;15.90;98.20;;;;;;6093435;23;20426;-77
2022/07/08 04:13:20;;;;;;;1.50;0.90;;;15.90;98.20;;;;;;6102608;23;20426;-77
2022/07/08 04:15:47;;;;;;;1.47;0.90;;;15.80;98.20;;;;;;6092655;23;20451;-77
2022/07/08 04:18:14;;;;;;;1.47;0.90;;;15.80;98.20;;;;;;6091298;23;20423;-77
2022/07/08 04:20:42;;;;;;;1.50;1.00;;;15.80;98.20;;;;;;6091408;23;20457;-77
2022/07/08 04:23:09;;;;;;;1.50;1.00;;;15.90;98.20;;;;;;6091179;23;20505;-77
2022/07/08 04:25:36;;;;;;;1.50;1.00;;;15.90;98.20;;;;;;6091490;23;20482;-77
2022/07/08 04:28:03;;;;;;;1.50;1.00;;;15.90;98.20;;;;;;6099579;23;20481;-77
2022/07/08 04:30:31;;;;;;;1.43;0.90;;;15.90;98.20;;;;;;6101695;23;20414;-77
2022/07/08 04:32:58;;;;;;;1.50;0.90;;;15.90;98.20;;;;;;6099370;23;20792;-76
2022/07/08 04:35:26;;;;;;;1.50;0.90;;;15.90;98.20;;;;;;6101910;23;20438;-78
2022/07/08 04:37:53;;;;;;;1.47;0.90;;;15.90;98.20;;;;;;6101493;23;20457;-77
2022/07/08 04:40:20;;;;;;;1.40;0.90;;;16.00;98.20;;;;;;6092161;23;20505;-77
2022/07/08 04:42:47;;;;;;;1.50;0.90;;;15.90;98.20;;;;;;6099520;23;20449;-77
2022/07/08 04:45:15;;;;;;;1.47;1.00;;;15.90;98.20;;;;;;6091987;23;20537;-76
2022/07/08 04:47:43;;;;;;;1.50;0.90;;;15.90;98.20;;;;;;6091515;23;20437;-77
2022/07/08 04:50:11;;;;;;;1.50;0.90;;;15.90;98.20;;;;;;6090790;23;20423;-77
2022/07/08 04:52:38;;;;;;;1.43;0.90;;;15.80;98.20;;;;;;6096572;23;20533;-77
2022/07/08 04:55:06;;;;;;;1.47;0.90;;;15.90;98.20;;;;;;6091440;23;20493;-77
2022/07/08 04:57:33;;;;;;;1.47;1.00;;;15.90;98.20;;;;;;6090890;23;20793;-77
2022/07/08 05:00:01;;;;;;;1.43;0.90;;;15.90;98.20;;;;;;6091735;23;20462;-76
2022/07/08 05:02:28;;;;;;;1.50;1.00;;;16.00;98.20;;;;;;6095392;23;20887;-77
2022/07/08 05:04:56;;;;;;;1.50;0.90;;;16.10;98.20;;;;;;6095486;23;20964;-76
2022/07/08 05:07:24;;;;;;;1.47;0.90;;;16.20;98.20;;;;;;6092101;23;20509;-75
2022/07/08 05:09:51;;;;;;;1.50;0.90;;;16.30;98.20;;;;;;6100795;23;20419;-77
2022/07/08 05:12:18;;;;;;;1.47;0.90;;;16.40;98.20;;;;;;6094332;23;20456;-77
2022/07/08 05:14:45;;;;;;;1.47;0.90;;;16.40;98.20;;;;;;6105465;23;20446;-77
2022/07/08 05:17:12;;;;;;;1.50;0.90;;;16.50;98.10;;;;;;6101426;23;20423;-77
2022/07/08 05:19:39;;;;;;;1.50;0.97;;;16.50;98.20;;;;;;6091178;23;20747;-77
2022/07/08 05:22:08;;;;;;;1.47;0.90;;;16.60;97.70;;;;;;6091707;23;20518;-77
2022/07/08 05:24:35;;;;;;;1.50;1.00;;;16.70;97.90;;;;;;6095353;23;20451;-77
2022/07/08 05:27:03;;;;;;;1.43;0.90;;;17.00;98.10;;;;;;6090567;23;20426;-76
2022/07/08 05:29:30;;;;;;;1.50;0.97;;;17.20;96.30;;;;;;6093929;23;20448;-76
2022/07/08 05:31:57;;;;;;;1.50;0.90;;;17.40;95.60;;;;;;6092157;23;20580;-76
2022/07/08 05:34:24;;;;;;;1.40;0.97;;;17.50;95.20;;;;;;6102870;23;20454;-77
2022/07/08 05:36:51;;;;;;;1.50;1.00;;;17.60;95.80;;;;;;6094784;23;20495;-77
2022/07/08 05:39:20;;;;;;;1.40;0.90;;;17.80;95.30;;;;;;6108993;23;20450;-77
2022/07/08 05:41:47;;;;;;;1.50;0.90;;;18.10;94.70;;;;;;6094968;23;20493;-79
2022/07/08 05:44:14;;;;;;;1.50;0.90;;;18.20;92.60;;;;;;6099046;23;20446;-77
2022/07/08 05:46:41;;;;;;;1.47;0.90;;;18.30;93.00;;;;;;6095698;23;20484;-77
2022/07/08 05:49:08;;;;;;;1.50;0.90;;;18.40;92.80;;;;;;6118696;23;20481;-78
2022/07/08 05:51:36;;;;;;;1.50;0.90;;;18.60;91.60;;;;;;6095962;23;20422;-79
2022/07/08 05:54:03;;;;;;;1.43;1.00;;;18.80;91.20;;;;;;6092919;23;21378;-78
2022/07/08 05:56:32;;;;;;;1.50;0.90;;;19.00;90.40;;;;;;6087265;23;20473;-77
2022/07/08 05:58:59;;;;;;;1.47;0.90;;;19.00;89.70;;;;;;6105777;23;21019;-77
2022/07/08 06:01:26;;;;;;;1.40;0.90;;;18.90;90.10;;;;;;6097337;23;20423;-78
2022/07/08 06:03:54;;;;;;;1.47;0.90;;;18.90;90.60;;;;;;6096610;23;21018;-79
2022/07/08 06:06:21;;;;;;;1.50;0.90;;;19.00;90.00;;;;;;6086485;23;20832;-76
2022/07/08 06:08:49;;;;;;;1.40;0.90;;;19.20;89.70;;;;;;6115646;23;21001;-77
2022/07/08 06:11:17;;;;;;;1.47;0.90;;;19.20;89.50;;;;;;6096746;23;20477;-77
2022/07/08 06:13:59;;;;;;;1.43;0.90;;;19.30;89.50;;;;;;6115230;23;20457;-78
2022/07/08 06:16:27;;;;;;;1.50;0.90;;;19.50;88.80;;;;;;6110485;23;20884;-77
2022/07/08 06:19:04;;;;;;;1.50;0.90;;;19.70;88.30;;;;;;6107976;23;20431;-77
2022/07/08 06:21:33;;;;;;;1.50;0.90;;;20.00;86.60;;;;;;6110655;23;20430;-77
2022/07/08 06:24:26;;;;;;;1.50;0.90;;;20.30;85.80;;;;;;6113974;23;20498;-76
2022/07/08 06:26:54;;;;;;;1.50;0.90;;;20.50;84.20;;;;;;6085907;23;20512;-78
2022/07/08 06:29:57;;;;;;;1.50;0.90;;;20.60;83.80;;;;;;6101396;23;20426;-77
2022/07/08 06:32:24;;;;;;;1.50;0.90;;;20.60;82.60;;;;;;6112696;23;20442;-78
2022/07/08 06:34:52;;;;;;;1.50;0.90;;;20.60;82.90;;;;;;6101287;23;20439;-77
2022/07/08 06:37:20;;;;;;;1.50;0.90;;;20.60;83.20;;;;;;6103175;23;20422;-77
2022/07/08 06:39:47;;;;;;;1.50;0.90;;;20.50;82.50;;;;;;6112132;23;20418;-77
2022/07/08 06:42:19;;;;;;;1.47;0.90;;;20.30;83.20;;;;;;6110420;23;20424;-77
2022/07/08 06:45:02;;;;;;;1.60;1.30;;;20.30;83.90;;;;;;6111951;23;20438;-79
2022/07/08 06:48:08;;;;;;;1.50;0.90;;;20.30;81.70;;;;;;6102877;23;20411;-77
2022/07/08 06:50:41;;;;;;;1.47;0.80;;;20.30;83.30;;;;;;6100473;23;20552;-77
2022/07/08 06:53:23;;;;;;;1.50;0.90;;;20.50;82.30;;;;;;6108088;23;20458;-78
2022/07/08 06:56:22;;;;;;;1.50;0.90;;;20.70;82.80;;;;;;6101539;23;20419;-78
2022/07/08 06:59:10;;;;;;;1.50;0.90;;;21.00;82.30;;;;;;6090557;23;20639;-77
2022/07/08 07:01:43;;;;;;;1.50;0.90;;;21.10;81.90;;;;;;6093532;23;20517;-77
2022/07/08 07:04:14;;;;;;;1.50;0.90;;;21.30;80.70;;;;;;6109605;23;20510;-77
2022/07/08 07:06:42;;;;;;;1.50;0.90;;;21.70;78.70;;;;;;6098975;23;20499;-78
2022/07/08 07:09:09;;;;;;;1.50;0.90;;;22.10;78.50;;;;;;6095995;23;20719;-77
2022/07/08 07:11:45;;;;;;;1.50;0.90;;;22.40;78.70;;;;;;6107035;23;20434;-76
2022/07/08 07:14:13;;;;;;;1.43;0.90;;;22.60;76.60;;;;;;6096745;23;20442;-76
2022/07/08 07:16:42;;;;;;;1.50;0.90;;;22.60;77.50;;;;;;6098920;23;20460;-77
2022/07/08 07:19:17;;;;;;;1.50;0.90;;;22.60;76.60;;;;;;6112767;23;20422;-77
2022/07/08 07:21:45;;;;;;;1.50;0.90;;;22.70;75.70;;;;;;6105024;23;20869;-77
2022/07/08 07:24:13;;;;;;;1.47;0.90;;;22.90;76.40;;;;;;6108270;23;20447;-77
2022/07/08 07:26:57;;;;;;;1.47;0.87;;;22.90;75.40;;;;;;6097250;23;20450;-78
2022/07/08 07:29:25;;;;;;;1.50;0.90;;;22.90;76.40;;;;;;6107120;23;20504;-77
2022/07/08 07:31:57;;;;;;;1.50;0.90;;;22.70;74.60;;;;;;6093966;23;20509;-77
2022/07/08 07:34:25;;;;;;;1.43;0.90;;;22.20;76.30;;;;;;6115403;23;20461;-77
2022/07/08 07:36:53;;;;;;;1.43;0.90;;;21.90;76.10;;;;;;6098107;23;20497;-77
2022/07/08 07:39:21;;;;;;;1.50;0.90;;;21.70;77.20;;;;;;6097910;23;20462;-77
2022/07/08 07:42:15;;;;;;;1.47;0.90;;;21.50;78.50;;;;;;6081584;23;20905;-77
2022/07/08 07:44:43;;;;;;;1.40;0.90;;;21.50;78.30;;;;;;6090636;23;21023;-75
2022/07/08 07:47:13;;;;;;;1.47;0.90;;;21.60;77.80;;;;;;6094771;23;20512;-77
2022/07/08 07:49:40;;;;;;;1.40;0.83;;;21.80;79.00;;;;;;6115633;23;20447;-76
2022/07/08 07:52:18;;;;;;;1.40;0.90;;;22.10;78.50;;;;;;6106843;23;20454;-78
2022/07/08 07:54:47;;;;;;;1.50;0.90;;;22.40;76.90;;;;;;6105983;23;20548;-75
2022/07/08 07:57:15;;;;;;;1.40;0.90;;;22.60;75.50;;;;;;6106314;23;20454;-75
2022/07/08 07:59:45;;;;;;;1.50;1.07;;;22.90;75.90;;;;;;6099107;23;20422;-76
2022/07/08 08:02:18;;;;;;;1.50;1.10;;;23.00;74.20;;;;;;6105402;23;20522;-76
2022/07/08 08:04:49;;;;;;;1.50;0.80;;;23.10;73.60;;;;;;6106031;23;20457;-77
2022/07/08 08:07:17;;;;;;;1.47;0.90;;;23.10;74.90;;;;;;6106852;23;20494;-77
2022/07/08 08:09:51;;;;;;;1.43;0.80;;;23.20;75.60;;;;;;6105705;23;21088;-77
2022/07/08 08:12:55;;;;;;;1.47;0.90;;;23.60;76.00;;;;;;6096683;23;20733;-78
2022/07/08 08:19:09;;;;;;;1.47;0.80;;;23.80;73.00;;;;;;5978609;23;20453;-76
2022/07/08 08:22:12;;;;;;;1.47;0.90;;;23.90;72.70;;;;;;6066498;23;20564;-78
2022/07/08 08:27:50;;;;;;;1.50;0.90;;;23.90;73.30;;;;;;6071925;23;20509;-77
2022/07/08 08:30:54;;;;;;;1.43;0.80;;;24.20;72.80;;;;;;6105457;23;20418;-77
2022/07/08 08:33:54;;;;;;;1.50;0.80;;;24.60;72.10;;;;;;6079304;23;20434;-76
2022/07/08 08:37:15;;;;;;;1.50;0.90;;;24.80;71.90;;;;;;6079065;23;20845;-76
2022/07/08 08:43:50;;;;;;;1.50;0.90;;;24.40;71.20;;;;;;6087817;23;20771;-76
2022/07/08 08:53:40;;;;;;;;;;;;;;;;;;;;;
2022/07/08 08:56:40;;;;;;;1.50;0.87;;;25.20;71.30;;;;;;6091882;23;20431;-77
2022/07/08 08:59:25;;;;;;;1.50;0.90;;;25.40;70.60;;;;;;6107041;23;20481;-77
2022/07/08 09:08:38;;;;;;;1.43;0.80;;;26.20;69.70;;;;;;6075822;23;20430;-77
2022/07/08 09:11:07;;;;;;;1.40;0.80;;;26.40;67.60;;;;;;6091105;23;20438;-77
2022/07/08 09:13:41;;;;;;;1.50;0.90;;;26.20;68.00;;;;;;6114287;23;20414;-76
2022/07/08 09:16:09;;;;;;;1.40;0.80;;;26.20;68.20;;;;;;6092191;23;20458;-76
2022/07/08 09:18:40;;;;;;;1.40;0.80;;;26.00;67.10;;;;;;6118432;23;20426;-77
2022/07/08 09:21:10;;;;;;;1.40;0.80;;;26.10;69.90;;;;;;6117622;23;20410;-77
2022/07/08 09:23:40;;;;;;;1.43;0.80;;;26.10;68.60;;;;;;6121292;23;20437;-77
2022/07/08 09:26:11;;;;;;;1.47;0.80;;;26.20;68.60;;;;;;6101475;23;20835;-77
2022/07/08 09:28:42;;;;;;;1.43;0.83;;;26.30;67.60;;;;;;6109104;23;20473;-76
2022/07/08 09:31:12;;;;;;;1.43;0.80;;;26.50;67.00;;;;;;6101465;23;20442;-78
2022/07/08 09:33:55;;;;;;;1.47;0.80;;;26.50;68.00;;;;;;6107815;23;20445;-79
2022/07/08 09:36:23;;;;;;;1.47;0.80;;;26.50;67.60;;;;;;6119665;23;20412;-79
2022/07/08 09:38:52;;;;;;;1.50;0.90;;;26.60;66.90;;;;;;6119086;23;20417;-77
2022/07/08 09:41:21;;;;;;;1.50;0.90;;;26.70;68.50;;;;;;6101877;23;20445;-76
2022/07/08 09:43:51;;;;;;;1.47;0.80;;;26.90;67.70;;;;;;6106378;23;20466;-77
2022/07/08 09:46:22;;;;;;;1.47;0.80;;;27.10;66.60;;;;;;6116300;23;20484;-77
2022/07/08 09:48:50;;;;;;;1.43;0.80;;;27.30;65.60;;;;;;6118352;23;20433;-76
2022/07/08 09:51:18;;;;;;;1.47;0.80;;;27.40;65.50;;;;;;6100439;23;20446;-78
2022/07/08 09:53:46;;;;;;;1.43;0.80;;;27.60;66.90;;;;;;6115892;23;20742;-75
2022/07/08 09:56:16;;;;;;;1.43;0.80;;;27.70;64.70;;;;;;6107430;23;20446;-76
2022/07/08 09:58:45;;;;;;;1.43;0.80;;;27.70;65.20;;;;;;6117509;23;20912;-75
2022/07/08 10:01:14;;;;;;;1.47;0.80;;;27.80;64.70;;;;;;6092969;23;20442;-75
2022/07/08 10:03:42;;;;;;;1.40;0.80;;;28.00;65.80;;;;;;6103740;23;20489;-76
2022/07/08 10:06:10;;;;;;;1.43;0.80;;;28.20;64.10;;;;;;6076983;23;20521;-75
2022/07/08 10:08:38;;;;;;;1.43;0.80;;;28.30;63.20;;;;;;6091843;23;20734;-76
2022/07/08 10:11:08;;;;;;;1.47;0.80;;;28.40;63.90;;;;;;6091179;23;20962;-76
2022/07/08 10:13:38;;;;;;;1.43;0.80;;;28.40;63.40;;;;;;6092295;23;20513;-76
2022/07/08 10:16:10;;;;;;;1.47;0.80;;;28.20;62.60;;;;;;6079237;23;20474;-76
2022/07/08 10:18:42;;;;;;;1.40;0.80;;;28.30;64.30;;;;;;6101675;23;20418;-75
2022/07/08 10:21:12;;;;;;;1.50;0.80;;;28.30;63.50;;;;;;6085909;23;20452;-75
2022/07/08 10:23:47;;;;;;;1.50;0.80;;;28.30;61.90;;;;;;6091529;23;20456;-76
2022/07/08 10:26:14;;;;;;;1.43;0.80;;;28.20;63.90;;;;;;6093218;23;20441;-76
2022/07/08 10:28:43;;;;;;;1.47;0.80;;;28.20;64.20;;;;;;6103266;23;20423;-75
2022/07/08 10:31:29;;;;;;;1.47;0.80;;;28.20;64.80;;;;;;6077790;23;20438;-75
2022/07/08 10:34:01;;;;;;;1.40;0.80;;;28.10;65.20;;;;;;6092075;23;20446;-76
2022/07/08 10:36:28;;;;;;;1.43;0.80;;;28.00;64.20;;;;;;6093533;23;20835;-75
2022/07/08 10:38:56;;;;;;;1.40;0.80;;;27.90;64.20;;;;;;6093374;23;20445;-75
2022/07/08 10:41:26;;;;;;;1.43;0.90;;;27.90;63.50;;;;;;6091764;23;20509;-77
2022/07/08 10:43:57;;;;;;;1.40;0.80;;;27.90;63.70;;;;;;6101758;23;20469;-75
2022/07/08 10:46:26;;;;;;;1.40;0.80;;;27.90;64.50;;;;;;6084695;23;20450;-77
2022/07/08 10:48:56;;;;;;;1.47;0.80;;;28.20;62.90;;;;;;6092030;23;20927;-76
2022/07/08 10:51:50;;;;;;;1.43;0.80;;;28.60;64.10;;;;;;6084838;23;20817;-77
2022/07/08 10:54:28;;;;;;;1.47;0.80;;;28.80;63.60;;;;;;6091108;23;20525;-77
2022/07/08 10:56:58;;;;;;;1.40;0.80;;;28.90;62.70;;;;;;6092070;23;20422;-77
2022/07/08 10:59:27;;;;;;;1.43;0.80;;;28.90;63.20;;;;;;6092437;23;20422;-76
2022/07/08 11:01:57;;;;;;;1.47;0.80;;;28.80;63.60;;;;;;6075720;23;20964;-78
2022/07/08 11:04:30;;;;;;;1.47;0.80;;;28.70;64.00;;;;;;6090342;23;20944;-76
2022/07/08 11:07:12;;;;;;;1.47;0.80;;;28.70;62.10;;;;;;6092482;23;20855;-77
2022/07/08 11:09:41;;;;;;;1.40;0.80;;;28.70;64.00;;;;;;6091807;23;20489;-77
2022/07/08 11:12:11;;;;;;;1.47;0.80;;;28.70;64.20;;;;;;6078313;23;20501;-77
2022/07/08 11:14:43;;;;;;;1.47;0.80;;;28.40;62.80;;;;;;6091139;23;20803;-78
2022/07/08 11:17:15;;;;;;;1.47;0.80;;;28.10;64.60;;;;;;6089336;23;20406;-77
2022/07/08 11:19:42;;;;;;;1.43;0.80;;;28.30;63.80;;;;;;6090519;23;20752;-78
2022/07/08 11:22:11;;;;;;;1.47;0.80;;;28.60;64.10;;;;;;6090226;23;20432;-78
2022/07/08 11:24:39;;;;;;;1.50;0.80;;;28.90;64.40;;;;;;6091875;23;20442;-79
2022/07/08 11:27:07;;;;;;;1.43;0.80;;;28.90;62.80;;;;;;6093391;23;20457;-78
2022/07/08 11:29:34;;;;;;;1.50;0.80;;;28.90;64.20;;;;;;6090617;23;20422;-78
2022/07/08 11:32:07;;;;;;;1.50;0.90;;;28.90;63.50;;;;;;6092312;23;20453;-81
2022/07/08 11:34:34;;;;;;;1.43;0.80;;;28.90;64.50;;;;;;6090758;23;20448;-77
2022/07/08 11:37:03;;;;;;;1.47;0.80;;;29.10;64.50;;;;;;6080734;23;20478;-78
2022/07/08 11:39:39;;;;;;;1.43;0.80;;;29.10;63.90;;;;;;6091636;23;20480;-77
2022/07/08 11:42:10;;;;;;;1.40;0.80;;;29.20;62.80;;;;;;6075356;23;20980;-78
2022/07/08 11:44:39;;;;;;;1.40;0.80;;;29.20;62.70;;;;;;6091319;23;20465;-77
2022/07/08 11:47:10;;;;;;;1.43;0.80;;;29.20;63.30;;;;;;6091105;23;20453;-77
2022/07/08 11:49:42;;;;;;;1.43;0.80;;;29.30;63.70;;;;;;6101523;23;20520;-76
2022/07/08 11:52:09;;;;;;;1.47;0.80;;;29.80;63.20;;;;;;6091464;23;20411;-76
2022/07/08 11:54:37;;;;;;;1.47;0.80;;;30.20;62.50;;;;;;6090662;23;20446;-77
2022/07/08 11:57:09;;;;;;;1.47;0.80;;;30.40;61.40;;;;;;6090530;23;20727;-77
2022/07/08 11:59:37;;;;;;;1.50;0.80;;;30.40;60.40;;;;;;6091431;23;20406;-78
2022/07/08 12:02:06;;;;;;;1.47;0.80;;;30.60;61.00;;;;;;6089418;23;20432;-79
2022/07/08 12:04:36;;;;;;;1.43;0.80;;;30.70;61.10;;;;;;6092037;23;21049;-78
2022/07/08 12:07:19;;;;;;;1.47;0.80;;;30.50;60.70;;;;;;6092975;23;20761;-80
2022/07/08 12:09:54;;;;;;;1.60;1.07;;;30.00;60.80;;;;;;6091388;23;20449;-78
2022/07/08 12:12:23;;;;;;;1.43;0.80;;;29.60;62.50;;;;;;6091065;23;20754;-79
2022/07/08 12:14:52;;;;;;;1.47;0.80;;;29.20;62.30;;;;;;6099200;23;20434;-78
2022/07/08 12:17:29;;;;;;;1.47;0.80;;;29.20;62.70;;;;;;6100676;23;20449;-76
2022/07/08 12:19:58;;;;;;;1.47;0.80;;;29.20;63.30;;;;;;6092176;23;20433;-79
2022/07/08 12:22:48;;;;;;;1.43;0.80;;;29.10;63.60;;;;;;6076179;23;20449;-77
2022/07/08 12:25:18;;;;;;;1.47;0.80;;;28.70;63.70;;;;;;6092030;23;20502;-78
2022/07/08 12:27:45;;;;;;;1.40;0.80;;;28.70;64.00;;;;;;6082972;23;20718;-78
2022/07/08 12:30:12;;;;;;;1.43;0.80;;;28.60;64.60;;;;;;6102055;23;20481;-78
2022/07/08 12:32:41;;;;;;;1.40;0.80;;;28.60;64.40;;;;;;6091282;23;20496;-76
2022/07/08 12:35:12;;;;;;;1.47;0.80;;;28.50;64.80;;;;;;6090863;23;20469;-77
2022/07/08 12:37:39;;;;;;;1.43;0.80;;;28.40;65.60;;;;;;6075421;23;20446;-77
2022/07/08 12:40:14;;;;;;;1.50;0.80;;;28.20;64.90;;;;;;6092989;23;20481;-78
2022/07/08 12:42:41;;;;;;;1.43;0.90;;;28.10;66.10;;;;;;6093547;23;20427;-78
2022/07/08 12:45:15;;;;;;;1.43;0.80;;;28.00;66.20;;;;;;6093745;23;20446;-79
2022/07/08 12:47:42;;;;;;;1.47;0.80;;;28.10;65.60;;;;;;6081053;23;20472;-78
2022/07/08 12:50:10;;;;;;;1.40;0.80;;;28.20;67.20;;;;;;6104139;23;20504;-78
2022/07/08 12:52:37;;;;;;;1.50;0.90;;;28.20;66.10;;;;;;6093203;23;20418;-77
2022/07/08 12:55:06;;;;;;;1.47;0.80;;;28.30;65.40;;;;;;6093724;23;20664;-78
2022/07/08 12:57:33;;;;;;;1.40;0.80;;;28.30;66.60;;;;;;6093282;23;20502;-78
2022/07/08 13:00:00;;;;;;;1.43;0.80;;;28.40;67.00;;;;;;6094833;23;20428;-77
2022/07/08 13:02:27;;;;;;;1.43;0.80;;;28.40;65.90;;;;;;6078266;23;20446;-78
2022/07/08 13:04:55;;;;;;;1.47;0.80;;;28.40;65.90;;;;;;6094722;23;20450;-78
2022/07/08 13:07:23;;;;;;;1.47;0.80;;;28.10;65.50;;;;;;6094001;23;20426;-78
2022/07/08 13:09:51;;;;;;;1.43;0.80;;;28.00;66.80;;;;;;6096667;23;20425;-79
2022/07/08 13:12:18;;;;;;;1.43;0.80;;;28.00;66.60;;;;;;6081308;23;20871;-79
2022/07/08 13:14:45;;;;;;;1.43;0.90;;;28.00;66.80;;;;;;6104315;23;20450;-77
2022/07/08 13:17:14;;;;;;;1.47;0.90;;;28.10;66.70;;;;;;6094371;23;20521;-77
2022/07/08 13:19:42;;;;;;;1.43;0.90;;;28.00;66.80;;;;;;6103558;23;20426;-78
2022/07/08 13:22:09;;;;;;;1.50;0.90;;;28.00;67.10;;;;;;6079352;23;20472;-79
2022/07/08 13:24:38;;;;;;;1.43;0.80;;;27.90;67.30;;;;;;6104067;23;20434;-77
2022/07/08 13:27:05;;;;;;;1.40;0.80;;;27.80;66.90;;;;;;6094171;23;20424;-78